createdAt,value
2023-03-11T00:01:28.649Z,71.50
2023-03-11T00:03:58.128Z,64.27
2023-03-11T00:06:26.031Z,53.38
2023-03-11T00:08:53.903Z,55.89
2023-03-11T00:11:22.457Z,57.42
2023-03-11T00:13:50.304Z,55.37
2023-03-11T00:16:18.196Z,57.39
2023-03-11T00:18:46.189Z,59.45
2023-03-11T00:21:18.664Z,58.10
2023-03-11T00:23:46.910Z,58.73
2023-03-11T00:26:14.783Z,59.47
2023-03-11T00:28:42.557Z,61.23
2023-03-11T00:31:13.086Z,61.55
2023-03-11T00:33:40.965Z,60.48
2023-03-11T00:36:14.721Z,60.79
2023-03-11T00:38:44.224Z,62.74
2023-03-11T00:41:13.915Z,62.19
2023-03-11T00:43:41.742Z,62.11
2023-03-11T00:46:10.444Z,62.59
2023-03-11T00:48:38.398Z,61.65
2023-03-11T00:51:09.105Z,61.25
2023-03-11T00:53:36.889Z,61.65
2023-03-11T00:56:09.986Z,66.75
2023-03-11T00:58:40.690Z,64.74
2023-03-11T01:01:09.587Z,65.67
2023-03-11T01:03:38.463Z,63.59
2023-03-11T01:06:07.049Z,65.72
2023-03-11T01:08:34.904Z,66.46
2023-03-11T01:11:03.100Z,64.60
2023-03-11T01:13:32.495Z,63.97
2023-03-11T01:16:01.045Z,64.81
2023-03-11T01:18:29.049Z,63.54
2023-03-11T01:20:56.856Z,66.19
2023-03-11T01:23:24.834Z,68.06
2023-03-11T01:25:52.761Z,65.75
2023-03-11T01:28:20.643Z,66.03
2023-03-11T01:30:49.947Z,66.62
2023-03-11T01:33:20.531Z,67.39
2023-03-11T01:35:49.318Z,64.24
2023-03-11T01:38:18.100Z,55.67
2023-03-11T01:40:48.040Z,59.33
2023-03-11T01:43:54.485Z,57.38
2023-03-11T01:46:28.147Z,57.47
2023-03-11T01:48:58.523Z,59.90
2023-03-11T01:51:31.321Z,56.57
2023-03-11T01:54:02.789Z,62.76
2023-03-11T01:56:31.463Z,64.71
2023-03-11T01:58:59.724Z,63.33
2023-03-11T02:01:29.176Z,65.28
2023-03-11T02:03:59.017Z,61.00
2023-03-11T02:06:27.461Z,62.91
2023-03-11T02:08:56.411Z,65.78
2023-03-11T02:11:27.899Z,65.96
2023-03-11T02:13:59.974Z,70.21
2023-03-11T02:16:29.367Z,65.80
2023-03-11T02:18:58.800Z,61.14
2023-03-11T02:21:29.101Z,61.92
2023-03-11T02:24:08.907Z,60.28
2023-03-11T02:26:42.630Z,60.00
2023-03-11T02:29:13.080Z,60.68
2023-03-11T02:31:43.432Z,58.56
2023-03-11T02:34:20.041Z,64.82
2023-03-11T02:36:50.018Z,70.34
2023-03-11T02:39:31.320Z,67.24
2023-03-11T02:42:01.512Z,62.58
2023-03-11T02:44:30.768Z,62.68
2023-03-11T02:46:58.849Z,61.20
2023-03-11T02:49:27.003Z,66.27
2023-03-11T02:51:55.070Z,68.86
2023-03-11T02:54:22.882Z,68.79
2023-03-11T02:56:50.828Z,65.90
2023-03-11T02:59:19.770Z,65.90
2023-03-11T03:01:48.921Z,64.67
2023-03-11T03:04:16.948Z,67.42
2023-03-11T03:06:44.782Z,65.50
2023-03-11T03:09:12.968Z,66.45
2023-03-11T03:11:40.683Z,64.85
2023-03-11T03:14:08.513Z,65.16
2023-03-11T03:16:36.605Z,67.40
2023-03-11T03:19:05.964Z,64.55
2023-03-11T03:21:34.134Z,65.89
2023-03-11T03:24:03.217Z,63.25
2023-03-11T03:26:31.286Z,64.54
2023-03-11T03:28:59.115Z,65.92
2023-03-11T03:31:27.025Z,64.38
2023-03-11T03:33:54.995Z,66.16
2023-03-11T03:36:24.226Z,68.53
2023-03-11T03:38:59.489Z,67.61
2023-03-11T03:41:31.904Z,68.99
2023-03-11T03:44:00.173Z,67.41
2023-03-11T03:46:28.876Z,65.53
2023-03-11T03:48:58.953Z,66.88
2023-03-11T03:51:29.339Z,67.68
2023-03-11T03:54:03.949Z,67.36
2023-03-11T03:56:31.962Z,66.86
2023-03-11T03:59:00.738Z,68.05
2023-03-11T04:01:35.041Z,70.58
2023-03-11T04:04:03.078Z,70.00
2023-03-11T04:06:32.245Z,72.39
2023-03-11T04:09:04.407Z,65.21
2023-03-11T04:11:35.553Z,64.17
2023-03-11T04:14:05.761Z,62.98
2023-03-11T04:16:38.844Z,60.38
2023-03-11T04:19:11.127Z,66.21
2023-03-11T04:21:40.791Z,62.79
2023-03-11T04:24:09.057Z,61.13
2023-03-11T04:26:39.119Z,63.44
2023-03-11T04:29:10.654Z,65.96
2023-03-11T04:31:43.201Z,65.64
2023-03-11T04:34:11.283Z,65.52
2023-03-11T04:36:41.801Z,64.58
2023-03-11T04:39:11.162Z,61.98
2023-03-11T04:41:43.209Z,62.30
2023-03-11T04:44:14.409Z,64.06
2023-03-11T04:46:42.291Z,61.45
2023-03-11T04:49:11.304Z,62.00
2023-03-11T04:51:39.160Z,61.54
2023-03-11T04:54:09.762Z,60.11
2023-03-11T04:56:37.508Z,61.21
2023-03-11T04:59:06.446Z,61.82
2023-03-11T05:01:36.578Z,61.04
2023-03-11T05:04:06.802Z,59.61
2023-03-11T05:06:34.820Z,61.42
2023-03-11T05:09:04.741Z,59.50
2023-03-11T05:11:36.921Z,60.85
2023-03-11T05:14:04.984Z,61.00
2023-03-11T05:16:32.841Z,59.73
2023-03-11T05:19:01.048Z,58.04
2023-03-11T05:21:29.358Z,60.50
2023-03-11T05:23:57.359Z,60.62
2023-03-11T05:26:25.417Z,59.14
2023-03-11T05:28:55.630Z,59.83
2023-03-11T05:31:23.782Z,59.73
2023-03-11T05:33:51.745Z,57.84
2023-03-11T05:36:19.514Z,58.65
2023-03-11T05:38:47.543Z,58.76
2023-03-11T05:41:16.135Z,57.51
2023-03-11T05:43:45.206Z,58.25
2023-03-11T05:46:16.033Z,59.27
2023-03-11T05:48:43.898Z,57.57
2023-03-11T05:51:14.312Z,57.32
2023-03-11T05:53:48.092Z,58.07
2023-03-11T05:56:21.615Z,58.80
2023-03-11T05:58:50.272Z,60.55
2023-03-11T06:01:20.663Z,62.58
2023-03-11T06:03:48.822Z,64.23
2023-03-11T06:06:17.694Z,67.72
2023-03-11T06:08:49.708Z,64.39
2023-03-11T06:11:19.319Z,70.97
2023-03-11T06:13:48.129Z,70.33
2023-03-11T06:16:16.098Z,65.04
2023-03-11T06:18:45.268Z,64.29
2023-03-11T06:21:17.561Z,62.55
2023-03-11T06:23:45.666Z,66.72
2023-03-11T06:26:16.688Z,64.98
2023-03-11T06:28:48.873Z,59.72
2023-03-11T06:31:19.399Z,60.49
2023-03-11T06:33:49.431Z,61.38
2023-03-11T06:36:19.051Z,60.86
2023-03-11T06:38:48.387Z,61.18
2023-03-11T06:41:16.995Z,62.05
2023-03-11T06:43:45.011Z,61.68
2023-03-11T06:46:16.809Z,62.26
2023-03-11T06:48:45.834Z,62.05
2023-03-11T06:51:16.227Z,63.52
2023-03-11T06:53:45.142Z,62.76
2023-03-11T06:56:14.340Z,63.38
2023-03-11T06:58:52.736Z,62.88
2023-03-11T07:01:22.763Z,61.56
2023-03-11T07:03:52.084Z,62.92
2023-03-11T07:06:24.946Z,63.73
2023-03-11T07:08:55.628Z,63.07
2023-03-11T07:11:25.671Z,63.57
2023-03-11T07:13:57.084Z,60.78
2023-03-11T07:16:26.996Z,62.34
2023-03-11T07:19:03.161Z,59.89
2023-03-11T07:21:33.945Z,62.02
2023-03-11T07:24:03.456Z,61.95
2023-03-11T07:26:33.273Z,59.47
2023-03-11T07:29:01.710Z,58.73
2023-03-11T07:31:30.917Z,60.31
2023-03-11T07:33:59.980Z,59.89
2023-03-11T07:36:29.057Z,59.82
2023-03-11T07:38:59.772Z,60.06
2023-03-11T07:41:28.322Z,59.55
2023-03-11T07:43:57.384Z,61.86
2023-03-11T07:46:26.776Z,61.73
2023-03-11T07:48:54.656Z,60.13
2023-03-11T07:51:24.577Z,59.54
2023-03-11T07:53:53.856Z,59.94
2023-03-11T07:56:25.336Z,60.38
2023-03-11T07:58:53.984Z,59.15
2023-03-11T08:01:24.485Z,57.80
2023-03-11T08:03:56.972Z,62.59
2023-03-11T08:06:27.079Z,61.81
2023-03-11T08:08:54.839Z,60.87
2023-03-11T08:11:24.896Z,58.45
2023-03-11T08:13:53.635Z,61.19
2023-03-11T08:16:23.393Z,60.28
2023-03-11T08:18:52.700Z,62.08
2023-03-11T08:21:23.038Z,60.69
2023-03-11T08:23:50.897Z,60.03
2023-03-11T08:26:21.609Z,56.35
2023-03-11T08:28:51.212Z,59.14
2023-03-11T08:31:20.523Z,58.35
2023-03-11T08:33:50.821Z,59.31
2023-03-11T08:36:19.392Z,57.95
2023-03-11T08:38:47.435Z,56.59
2023-03-11T08:41:15.586Z,57.58
2023-03-11T08:43:44.347Z,57.60
2023-03-11T08:46:16.922Z,57.57
2023-03-11T08:48:44.851Z,56.00
2023-03-11T08:51:13.809Z,58.83
2023-03-11T08:53:42.016Z,57.79
2023-03-11T08:56:10.158Z,59.33
2023-03-11T08:58:38.028Z,61.59
2023-03-11T09:01:06.584Z,57.62
2023-03-11T09:03:36.855Z,58.60
2023-03-11T09:06:06.819Z,57.80
2023-03-11T09:08:35.027Z,57.64
2023-03-11T09:11:03.048Z,61.04
2023-03-11T09:13:30.859Z,56.63
2023-03-11T09:15:58.677Z,56.30
2023-03-11T09:18:27.397Z,55.30
2023-03-11T09:20:58.300Z,54.06
2023-03-11T09:23:26.492Z,57.83
2023-03-11T09:25:54.319Z,56.57
2023-03-11T09:28:22.156Z,55.78
2023-03-11T09:30:49.992Z,54.52
2023-03-11T09:33:17.902Z,56.36
2023-03-11T09:35:46.112Z,56.90
2023-03-11T09:38:15.685Z,56.37
2023-03-11T09:41:00.546Z,56.48
2023-03-11T09:43:44.723Z,56.41
2023-03-11T09:46:30.704Z,54.75
2023-03-11T09:49:08.433Z,57.04
2023-03-11T09:51:42.182Z,56.15
2023-03-11T09:54:13.735Z,54.99
2023-03-11T09:56:44.607Z,56.00
2023-03-11T09:59:18.506Z,56.29
2023-03-11T10:01:48.996Z,54.47
2023-03-11T10:04:20.993Z,54.20
2023-03-11T10:06:49.040Z,52.52
2023-03-11T10:09:39.279Z,53.95
2023-03-11T10:12:27.767Z,50.93
2023-03-11T10:15:14.362Z,50.54
2023-03-11T10:17:52.993Z,50.18
2023-03-11T10:20:24.358Z,51.87
2023-03-11T10:23:03.912Z,48.96
2023-03-11T10:25:43.247Z,50.12
2023-03-11T10:28:14.802Z,50.25
2023-03-11T10:30:48.064Z,49.20
2023-03-11T10:33:22.489Z,51.36
2023-03-11T10:35:54.586Z,50.84
2023-03-11T10:38:25.600Z,50.90
2023-03-11T10:40:58.380Z,49.12
2023-03-11T10:43:30.016Z,49.86
2023-03-11T10:45:57.920Z,48.59
2023-03-11T10:48:26.773Z,48.53
2023-03-11T10:51:02.474Z,49.18
2023-03-11T10:53:31.301Z,49.02
2023-03-11T10:56:00.810Z,51.95
2023-03-11T10:58:30.745Z,49.64
2023-03-11T11:01:03.573Z,50.25
2023-03-11T11:03:32.340Z,49.94
2023-03-11T11:06:03.226Z,50.51
2023-03-11T11:08:32.400Z,48.68
2023-03-11T11:11:03.430Z,49.31
2023-03-11T11:13:34.518Z,48.42
2023-03-11T11:16:04.967Z,47.89
2023-03-11T11:18:35.573Z,49.77
2023-03-11T11:21:06.727Z,48.21
2023-03-11T11:23:41.945Z,48.76
2023-03-11T11:26:18.016Z,50.28
2023-03-11T11:28:46.248Z,47.63
2023-03-11T11:31:25.344Z,49.63
2023-03-11T11:33:54.876Z,49.81
2023-03-11T11:36:26.475Z,48.45
2023-03-11T11:38:55.096Z,49.23
2023-03-11T11:41:27.139Z,47.97
2023-03-11T11:43:56.617Z,48.55
2023-03-11T11:46:31.195Z,47.32
2023-03-11T11:49:12.835Z,47.47
2023-03-11T11:51:46.876Z,47.08
2023-03-11T11:54:24.340Z,48.24
2023-03-11T11:56:53.558Z,47.83
2023-03-11T11:59:23.062Z,46.86
2023-03-11T12:02:01.411Z,46.44
2023-03-11T12:04:47.942Z,45.71
2023-03-11T12:07:30.963Z,47.46
2023-03-11T12:10:22.295Z,46.09
2023-03-11T12:13:09.505Z,45.59
2023-03-11T12:15:42.399Z,45.31
2023-03-11T12:18:17.983Z,46.38
2023-03-11T12:20:50.875Z,44.33
2023-03-11T12:23:20.884Z,45.69
2023-03-11T12:26:11.148Z,45.81
2023-03-11T12:28:45.053Z,44.97
2023-03-11T12:31:14.711Z,43.44
2023-03-11T12:33:45.090Z,44.61
2023-03-11T12:36:24.946Z,43.46
2023-03-11T12:38:54.776Z,44.13
2023-03-11T12:41:33.511Z,44.82
2023-03-11T12:44:05.493Z,43.84
2023-03-11T12:47:09.785Z,44.66
2023-03-11T12:49:39.054Z,44.06
2023-03-11T12:52:28.009Z,43.50
2023-03-11T12:55:38.616Z,44.37
2023-03-11T12:58:34.847Z,43.28
2023-03-11T13:01:25.397Z,44.09
2023-03-11T13:04:04.297Z,45.61
2023-03-11T13:06:59.580Z,42.24
2023-03-11T13:09:28.814Z,42.80
2023-03-11T13:11:58.338Z,44.16
2023-03-11T13:14:31.787Z,42.54
2023-03-11T13:17:26.693Z,42.60
2023-03-11T13:19:56.930Z,42.64
2023-03-11T13:22:58.447Z,42.12
2023-03-11T13:25:37.967Z,44.28
2023-03-11T13:28:25.242Z,42.05
2023-03-11T13:31:00.123Z,41.16
2023-03-11T13:33:46.347Z,42.25
2023-03-11T13:36:29.034Z,43.64
2023-03-11T13:39:12.659Z,42.94
2023-03-11T13:41:44.973Z,42.54
2023-03-11T13:44:21.475Z,43.61
2023-03-11T13:46:53.926Z,41.69
2023-03-11T13:49:35.537Z,42.26
2023-03-11T13:52:04.860Z,41.41
2023-03-11T13:54:39.341Z,41.12
2023-03-11T13:57:07.221Z,40.59
2023-03-11T13:59:36.109Z,40.36
2023-03-11T14:02:17.939Z,39.82
2023-03-11T14:04:50.878Z,40.22
2023-03-11T14:07:26.477Z,41.24
2023-03-11T14:10:22.569Z,40.94
2023-03-11T14:12:50.876Z,40.72
2023-03-11T14:15:23.248Z,40.69
2023-03-11T14:17:52.781Z,40.17
2023-03-11T14:20:25.470Z,40.03
2023-03-11T14:22:56.024Z,39.74
2023-03-11T14:25:26.775Z,39.53
2023-03-11T14:27:57.440Z,39.90
2023-03-11T14:30:28.717Z,40.64
2023-03-11T14:32:58.867Z,40.40
2023-03-11T14:35:28.591Z,39.96
2023-03-11T14:37:56.593Z,39.24
2023-03-11T14:40:28.646Z,39.48
2023-03-11T14:43:00.148Z,39.40
2023-03-11T14:45:31.655Z,39.26
2023-03-11T14:48:05.431Z,38.94
2023-03-11T14:50:36.152Z,38.79
2023-03-11T14:53:14.979Z,38.80
2023-03-11T14:55:50.992Z,38.44
2023-03-11T14:58:26.348Z,38.21
2023-03-11T15:00:58.807Z,37.61
2023-03-11T15:03:30.999Z,38.36
2023-03-11T15:06:05.130Z,37.65
2023-03-11T15:08:38.547Z,38.83
2023-03-11T15:11:20.951Z,37.80
2023-03-11T15:13:51.159Z,38.29
2023-03-11T15:16:30.562Z,38.32
2023-03-11T15:19:01.435Z,39.12
2023-03-11T15:21:31.474Z,39.20
2023-03-11T15:24:04.989Z,39.47
2023-03-11T15:26:35.786Z,39.33
2023-03-11T15:29:07.065Z,39.53
2023-03-11T15:31:37.350Z,39.96
2023-03-11T15:34:25.325Z,38.99
2023-03-11T15:37:01.373Z,38.65
2023-03-11T15:39:43.829Z,38.37
2023-03-11T15:42:19.586Z,38.85
2023-03-11T15:45:02.313Z,39.01
2023-03-11T15:47:30.074Z,39.76
2023-03-11T15:49:57.886Z,39.50
2023-03-11T15:52:27.097Z,41.72
2023-03-11T15:54:56.203Z,38.63
2023-03-11T15:57:27.064Z,36.80
2023-03-11T15:59:56.824Z,36.65
2023-03-11T16:02:25.831Z,37.38
2023-03-11T16:04:54.283Z,36.79
2023-03-11T16:07:38.170Z,36.44
2023-03-11T16:10:09.740Z,35.00
2023-03-11T16:12:37.573Z,35.29
2023-03-11T16:15:06.902Z,35.16
2023-03-11T16:17:48.994Z,35.52
2023-03-11T16:20:18.258Z,34.88
2023-03-11T16:22:47.290Z,34.45
2023-03-11T16:25:22.898Z,34.25
2023-03-11T16:27:52.732Z,34.13
2023-03-11T16:30:20.891Z,33.96
2023-03-11T16:32:48.831Z,35.93
2023-03-11T16:35:17.047Z,36.81
2023-03-11T16:37:45.425Z,37.58
2023-03-11T16:40:15.117Z,37.63
2023-03-11T16:42:44.836Z,37.76
2023-03-11T16:45:13.124Z,37.80
2023-03-11T16:47:41.038Z,38.39
2023-03-11T16:50:10.951Z,39.20
2023-03-11T16:52:38.885Z,37.87
2023-03-11T16:55:07.456Z,39.14
2023-03-11T16:57:35.250Z,38.57
2023-03-11T17:00:06.913Z,38.95
2023-03-11T17:02:34.747Z,40.48
2023-03-11T17:05:03.261Z,38.91
2023-03-11T17:07:31.256Z,39.64
2023-03-11T17:09:59.307Z,40.33
2023-03-11T17:12:28.018Z,40.71
2023-03-11T17:14:56.248Z,40.75
2023-03-11T17:17:25.361Z,41.16
2023-03-11T17:19:53.135Z,41.48
2023-03-11T17:22:20.917Z,40.69
2023-03-11T17:24:48.735Z,41.40
2023-03-11T17:27:16.680Z,42.16
2023-03-11T17:29:44.653Z,41.66
2023-03-11T17:32:16.810Z,41.42
2023-03-11T17:34:46.319Z,41.39
2023-03-11T17:37:14.254Z,41.17
2023-03-11T17:39:41.981Z,41.01
2023-03-11T17:42:09.925Z,41.90
2023-03-11T17:44:50.487Z,41.13
2023-03-11T17:47:19.614Z,41.19
2023-03-11T17:49:49.509Z,41.55
2023-03-11T17:52:17.385Z,42.24
2023-03-11T17:54:45.445Z,41.75
2023-03-11T17:57:13.253Z,42.07
2023-03-11T17:59:41.053Z,42.55
2023-03-11T18:02:09.217Z,42.72
2023-03-11T18:04:38.789Z,43.47
2023-03-11T18:07:08.354Z,44.08
2023-03-11T18:09:36.065Z,44.17
2023-03-11T18:12:04.196Z,43.92
2023-03-11T18:14:31.918Z,44.12
2023-03-11T18:17:00.185Z,44.05
2023-03-11T18:19:27.957Z,44.10
2023-03-11T18:21:55.735Z,43.59
2023-03-11T18:24:25.155Z,45.31
2023-03-11T18:26:52.962Z,45.11
2023-03-11T18:29:20.886Z,45.07
2023-03-11T18:31:48.773Z,45.82
2023-03-11T18:34:16.512Z,45.29
2023-03-11T18:36:44.313Z,44.41
2023-03-11T18:39:13.721Z,44.69
2023-03-11T18:41:43.598Z,44.97
2023-03-11T18:44:11.921Z,44.53
2023-03-11T18:46:41.477Z,44.42
2023-03-11T18:49:12.645Z,44.80
2023-03-11T18:51:41.009Z,45.08
2023-03-11T18:54:09.081Z,44.85
2023-03-11T18:56:37.280Z,44.69
2023-03-11T18:59:07.803Z,45.12
2023-03-11T19:01:35.732Z,45.95
2023-03-11T19:04:03.471Z,44.09
2023-03-11T19:06:31.304Z,44.07
2023-03-11T19:08:59.143Z,43.94
2023-03-11T19:11:27.702Z,44.64
2023-03-11T19:13:56.070Z,45.15
2023-03-11T19:16:27.018Z,44.67
2023-03-11T19:18:56.083Z,45.25
2023-03-11T19:21:25.758Z,44.80
2023-03-11T19:23:55.281Z,45.33
2023-03-11T19:26:33.882Z,44.85
2023-03-11T19:29:10.207Z,45.38
2023-03-11T19:31:39.270Z,44.67
2023-03-11T19:34:07.054Z,44.95
2023-03-11T19:36:34.806Z,44.51
2023-03-11T19:39:03.196Z,44.67
2023-03-11T19:41:30.975Z,44.67
2023-03-11T19:44:01.479Z,45.67
2023-03-11T19:46:29.789Z,45.01
2023-03-11T19:48:59.645Z,45.65
2023-03-11T19:51:38.762Z,46.04
2023-03-11T19:54:13.968Z,45.62
2023-03-11T19:56:42.212Z,45.64
2023-03-11T19:59:10.013Z,45.51
2023-03-11T20:01:38.097Z,45.00
2023-03-11T20:04:11.158Z,45.69
2023-03-11T20:06:39.210Z,45.45
2023-03-11T20:09:07.392Z,45.84
2023-03-11T20:11:39.839Z,44.95
2023-03-11T20:14:08.385Z,45.52
2023-03-11T20:16:36.473Z,46.82
2023-03-11T20:19:05.262Z,45.78
2023-03-11T20:21:39.240Z,46.32
2023-03-11T20:24:08.292Z,46.76
2023-03-11T20:26:36.947Z,45.70
2023-03-11T20:29:05.739Z,45.73
2023-03-11T20:31:34.864Z,45.22
2023-03-11T20:34:03.540Z,44.67
2023-03-11T20:36:33.989Z,45.77
2023-03-11T20:39:04.452Z,45.01
2023-03-11T20:41:37.379Z,44.82
2023-03-11T20:44:07.419Z,45.38
2023-03-11T20:46:36.146Z,45.12
2023-03-11T20:49:05.144Z,44.79
2023-03-11T20:51:33.329Z,44.54
2023-03-11T20:54:01.324Z,45.71
2023-03-11T20:56:30.685Z,45.01
2023-03-11T20:59:00.784Z,45.61
2023-03-11T21:01:31.235Z,45.89
2023-03-11T21:04:02.570Z,44.84
2023-03-11T21:06:34.508Z,44.88
2023-03-11T21:09:05.816Z,44.36
2023-03-11T21:11:35.952Z,43.73
2023-03-11T21:14:04.338Z,44.16
2023-03-11T21:16:32.611Z,44.09
2023-03-11T21:19:01.517Z,44.18
2023-03-11T21:21:29.719Z,44.67
2023-03-11T21:24:01.269Z,44.13
2023-03-11T21:26:29.638Z,43.40
2023-03-11T21:28:58.892Z,43.85
2023-03-11T21:31:29.451Z,44.14
2023-03-11T21:33:59.236Z,44.29
2023-03-11T21:36:27.288Z,43.24
2023-03-11T21:38:55.270Z,43.78
2023-03-11T21:41:26.041Z,44.02
2023-03-11T21:43:56.591Z,44.01
2023-03-11T21:46:27.604Z,44.03
2023-03-11T21:48:56.029Z,43.38
2023-03-11T21:51:24.973Z,43.96
2023-03-11T21:53:53.394Z,43.93
2023-03-11T21:56:21.626Z,44.26
2023-03-11T21:58:49.970Z,43.76
2023-03-11T22:01:19.185Z,43.57
2023-03-11T22:03:48.806Z,44.46
2023-03-11T22:06:16.769Z,44.13
2023-03-11T22:08:44.991Z,43.70
2023-03-11T22:11:18.392Z,43.33
2023-03-11T22:13:47.240Z,42.51
2023-03-11T22:16:18.015Z,42.05
2023-03-11T22:18:46.707Z,42.17
2023-03-11T22:21:16.694Z,42.42
2023-03-11T22:23:46.040Z,42.99
2023-03-11T22:26:14.600Z,42.83
2023-03-11T22:28:45.734Z,42.60
2023-03-11T22:31:17.574Z,42.95
2023-03-11T22:33:45.827Z,43.57
2023-03-11T22:36:13.871Z,43.01
2023-03-11T22:38:44.705Z,43.06
2023-03-11T22:41:16.777Z,41.89
2023-03-11T22:43:46.201Z,41.79
2023-03-11T22:46:14.692Z,41.99
2023-03-11T22:48:46.032Z,42.88
2023-03-11T22:51:14.268Z,43.56
2023-03-11T22:53:43.766Z,42.89
2023-03-11T22:56:14.783Z,42.51
2023-03-11T22:58:42.912Z,42.06
2023-03-11T23:01:13.522Z,43.54
2023-03-11T23:03:41.504Z,42.70
2023-03-11T23:06:12.009Z,43.56
2023-03-11T23:08:40.121Z,43.28
2023-03-11T23:11:14.421Z,43.17
2023-03-11T23:13:43.048Z,43.58
2023-03-11T23:16:16.756Z,43.05
2023-03-11T23:18:51.459Z,42.61
2023-03-11T23:21:20.945Z,42.66
2023-03-11T23:23:49.312Z,43.12
2023-03-11T23:26:19.575Z,42.50
2023-03-11T23:28:52.250Z,43.01
2023-03-11T23:31:25.904Z,43.67
2023-03-11T23:33:54.323Z,43.95
2023-03-11T23:36:25.383Z,43.97
2023-03-11T23:38:53.476Z,43.57
2023-03-11T23:41:23.661Z,43.97
2023-03-11T23:43:51.882Z,43.92
2023-03-11T23:46:20.158Z,43.48
2023-03-11T23:48:48.160Z,44.11
2023-03-11T23:51:16.252Z,43.63
2023-03-11T23:53:44.448Z,43.81
2023-03-11T23:56:14.263Z,43.68
2023-03-11T23:58:44.325Z,44.13
